Time;durP1;ratioP1;P1;durP2;ratioP2;P2;SDS_P1;SDS_P2;PMS_P1;PMS_P2;Temp;Humidity;BMP_temperature;BMP_pressure;BME280_temperature;BME280_humidity;BME280_pressure;Samples;Min_cycle;Max_cycle;Signal;HPM_P1;HPM_P2
2022/10/07 00:01:43;;;;;;;11.25;4.10;;;6.20;99.90;;;;;;5072721;28;20500;-72
2022/10/07 00:04:09;;;;;;;7.60;3.97;;;6.20;99.90;;;;;;5073183;28;20107;-75
2022/10/07 00:06:34;;;;;;;7.25;3.67;;;6.10;99.90;;;;;;5072432;28;20013;-75
2022/10/07 00:09:01;;;;;;;7.78;3.88;;;6.10;99.90;;;;;;5072533;28;20031;-72
2022/10/07 00:11:27;;;;;;;7.22;3.80;;;6.20;99.90;;;;;;5072744;28;20489;-72
2022/10/07 00:13:56;;;;;;;8.93;5.20;;;6.30;99.90;;;;;;5071249;28;20099;-75
2022/10/07 00:16:24;;;;;;;10.65;5.70;;;6.20;99.90;;;;;;5071312;28;20024;-75
2022/10/07 00:18:53;;;;;;;9.05;4.65;;;6.20;99.90;;;;;;5071041;28;20025;-76
2022/10/07 00:21:19;;;;;;;9.55;4.15;;;6.30;99.90;;;;;;5059169;28;20040;-75
2022/10/07 00:23:46;;;;;;;8.80;4.47;;;6.20;99.90;;;;;;5071008;28;20024;-75
2022/10/07 00:26:15;;;;;;;8.30;4.50;;;6.40;99.90;;;;;;5057220;28;20028;-76
2022/10/07 00:28:40;;;;;;;9.02;4.40;;;6.30;99.90;;;;;;5061440;28;20111;-73
2022/10/07 00:31:10;;;;;;;14.70;5.93;;;6.40;99.90;;;;;;5056790;28;20114;-74
2022/10/07 00:33:38;;;;;;;11.40;5.43;;;6.20;99.90;;;;;;5060394;28;20062;-74
2022/10/07 00:36:13;;;;;;;9.60;5.72;;;6.10;99.90;;;;;;5069231;28;20029;-73
2022/10/07 00:38:39;;;;;;;13.43;5.70;;;5.80;99.90;;;;;;5063184;28;20028;-76
2022/10/07 00:41:06;;;;;;;8.13;4.95;;;5.50;99.90;;;;;;5072122;28;20470;-74
2022/10/07 00:43:32;;;;;;;8.65;5.20;;;5.60;99.90;;;;;;5070707;28;20363;-74
2022/10/07 00:46:03;;;;;;;9.68;5.15;;;5.80;99.90;;;;;;5071492;28;20025;-74
2022/10/07 00:48:31;;;;;;;7.15;4.15;;;5.50;99.90;;;;;;5060032;28;20017;-76
2022/10/07 00:50:59;;;;;;;8.15;4.85;;;5.60;99.90;;;;;;5065414;28;20039;-73
2022/10/07 00:53:28;;;;;;;7.07;4.38;;;5.60;99.90;;;;;;5051948;28;20112;-73
2022/10/07 00:55:56;;;;;;;12.63;4.63;;;5.60;99.90;;;;;;5065359;28;20071;-76
2022/10/07 00:58:23;;;;;;;6.40;3.70;;;5.60;99.90;;;;;;5061062;28;20059;-76
2022/10/07 01:00:49;;;;;;;8.68;3.60;;;5.60;99.90;;;;;;5071993;28;20574;-75
2022/10/07 01:03:15;;;;;;;5.43;3.33;;;5.70;99.90;;;;;;5071926;28;20036;-75
2022/10/07 01:05:40;;;;;;;6.63;3.15;;;5.80;99.90;;;;;;5054774;28;20067;-75
2022/10/07 01:08:06;;;;;;;7.72;3.58;;;5.90;99.90;;;;;;5051836;28;20059;-76
2022/10/07 01:10:41;;;;;;;10.20;5.50;;;5.70;99.90;;;;;;5051749;28;20029;-75
2022/10/07 01:13:26;;;;;;;11.27;5.80;;;5.70;99.90;;;;;;5051645;28;20049;-76
2022/10/07 01:16:00;;;;;;;7.65;4.13;;;5.50;99.90;;;;;;5057998;28;20266;-75
2022/10/07 01:18:46;;;;;;;6.85;4.00;;;5.40;99.90;;;;;;5058025;28;20192;-75
2022/10/07 01:21:18;;;;;;;7.40;4.13;;;5.40;99.90;;;;;;5071654;28;20500;-75
2022/10/07 01:24:19;;;;;;;7.80;4.05;;;5.40;99.90;;;;;;5057731;28;20041;-74
2022/10/07 01:27:21;;;;;;;8.15;4.03;;;5.40;99.90;;;;;;5050241;28;20021;-75
2022/10/07 01:30:02;;;;;;;7.40;4.00;;;5.50;99.90;;;;;;5050064;28;20521;-75
2022/10/07 01:32:46;;;;;;;8.60;3.50;;;5.50;99.90;;;;;;5051510;28;20028;-74
2022/10/07 01:35:17;;;;;;;8.55;4.28;;;5.50;99.90;;;;;;5051434;28;20029;-75
2022/10/07 01:37:49;;;;;;;6.35;3.63;;;5.60;99.90;;;;;;5051410;28;20032;-75
2022/10/07 01:40:26;;;;;;;6.30;3.40;;;5.60;99.90;;;;;;5051425;28;20513;-75
2022/10/07 01:42:53;;;;;;;6.22;2.65;;;5.60;99.90;;;;;;5050175;28;20048;-74
2022/10/07 01:45:21;;;;;;;7.25;2.65;;;5.50;99.90;;;;;;5059587;28;20016;-75
2022/10/07 01:47:47;;;;;;;6.65;3.03;;;5.70;99.90;;;;;;5069568;28;20021;-75
2022/10/07 01:50:14;;;;;;;7.68;2.85;;;5.80;99.90;;;;;;5064672;28;20107;-75
2022/10/07 01:53:11;;;;;;;6.45;3.25;;;5.60;99.90;;;;;;5063276;28;20091;-75
2022/10/07 01:55:55;;;;;;;;;;;5.50;99.90;;;;;;5064109;28;20021;-75
2022/10/07 01:58:54;;;;;;;11.20;3.08;;;5.40;99.90;;;;;;5067525;28;19949;-75
2022/10/07 02:01:42;;;;;;;7.03;3.28;;;5.40;99.90;;;;;;5055169;28;20028;-75
2022/10/07 02:04:42;;;;;;;4.97;3.28;;;5.30;99.90;;;;;;5053992;28;20025;-75
2022/10/07 02:07:38;;;;;;;8.75;3.97;;;5.30;99.90;;;;;;5073440;28;20452;-75
2022/10/07 02:10:16;;;;;;;6.25;3.03;;;5.40;99.90;;;;;;5060656;28;20501;-75
2022/10/07 02:12:49;;;;;;;5.75;2.95;;;5.40;99.90;;;;;;5073647;28;20119;-75
2022/10/07 02:15:26;;;;;;;7.18;3.20;;;5.30;99.90;;;;;;5055367;28;20029;-75
2022/10/07 02:17:56;;;;;;;6.03;2.78;;;5.30;99.90;;;;;;5068812;28;20478;-76
2022/10/07 02:20:25;;;;;;;5.80;2.97;;;5.30;99.90;;;;;;5067467;28;20044;-76
2022/10/07 02:22:54;;;;;;;6.10;2.95;;;5.40;99.90;;;;;;5056037;28;20044;-76
2022/10/07 02:25:21;;;;;;;4.93;3.00;;;5.30;99.90;;;;;;5075284;28;20024;-76
2022/10/07 02:27:49;;;;;;;7.80;3.80;;;5.40;99.90;;;;;;5071590;28;20020;-75
2022/10/07 02:30:17;;;;;;;8.82;4.00;;;5.10;99.90;;;;;;5062306;28;20021;-76
2022/10/07 02:32:53;;;;;;;5.07;3.38;;;4.80;99.90;;;;;;5061181;28;20032;-74
2022/10/07 02:35:23;;;;;;;;;;;4.80;99.90;;;;;;5075149;28;20075;-76
2022/10/07 02:37:53;;;;;;;6.72;2.83;;;4.90;99.90;;;;;;5056627;28;20385;-75
2022/10/07 02:40:20;;;;;;;8.85;3.25;;;5.00;99.90;;;;;;5053296;28;20123;-75
2022/10/07 02:42:53;;;;;;;6.35;3.20;;;5.00;99.90;;;;;;5073332;28;20052;-76
2022/10/07 02:45:42;;;;;;;7.18;3.00;;;5.00;99.90;;;;;;5061479;28;20020;-76
2022/10/07 02:48:20;;;;;;;6.68;2.63;;;5.10;99.90;;;;;;5063870;28;20488;-76
2022/10/07 02:50:52;;;;;;;5.55;2.70;;;5.20;99.90;;;;;;5074423;28;20429;-75
2022/10/07 02:53:20;;;;;;;11.73;4.13;;;5.30;99.90;;;;;;5062439;28;20392;-76
2022/10/07 02:55:49;;;;;;;9.35;4.40;;;5.30;99.90;;;;;;5067688;28;20402;-76
2022/10/07 02:58:16;;;;;;;6.80;4.20;;;5.40;99.90;;;;;;5054060;28;20028;-76
2022/10/07 03:00:49;;;;;;;7.85;4.38;;;5.10;99.90;;;;;;5053949;28;20029;-75
2022/10/07 03:03:15;;;;;;;6.55;3.40;;;5.00;99.90;;;;;;5054032;28;20028;-75
2022/10/07 03:05:41;;;;;;;6.38;4.03;;;4.90;99.90;;;;;;5054118;28;20029;-75
2022/10/07 03:08:09;;;;;;;6.47;3.65;;;5.00;99.90;;;;;;5067254;28;20048;-76
2022/10/07 03:10:34;;;;;;;9.35;3.42;;;4.90;99.90;;;;;;5072720;28;20059;-75
2022/10/07 03:13:03;;;;;;;8.77;4.60;;;4.90;99.90;;;;;;5073565;28;20037;-75
2022/10/07 03:15:30;;;;;;;7.70;4.70;;;4.90;99.90;;;;;;5053929;28;20021;-75
2022/10/07 03:17:56;;;;;;;9.75;5.97;;;4.60;99.90;;;;;;5068098;28;20377;-75
2022/10/07 03:20:22;;;;;;;8.15;4.57;;;4.50;99.90;;;;;;5066301;28;20025;-75
2022/10/07 03:22:47;;;;;;;7.85;4.22;;;4.60;99.90;;;;;;5053433;28;20438;-74
2022/10/07 03:25:13;;;;;;;10.02;3.72;;;4.70;99.90;;;;;;5053852;28;20104;-74
2022/10/07 03:27:41;;;;;;;7.45;3.38;;;4.80;99.90;;;;;;5053404;28;20056;-75
2022/10/07 03:30:09;;;;;;;7.30;3.78;;;4.80;99.90;;;;;;5053767;28;20020;-74
2022/10/07 03:32:36;;;;;;;7.38;3.45;;;4.80;99.90;;;;;;5053179;28;20067;-74
2022/10/07 03:35:02;;;;;;;7.22;3.60;;;4.80;99.90;;;;;;5052162;28;20033;-74
2022/10/07 03:37:29;;;;;;;8.27;3.75;;;4.90;99.90;;;;;;5051900;28;20479;-74
2022/10/07 03:39:55;;;;;;;6.13;3.28;;;4.90;99.90;;;;;;5053266;28;20032;-74
2022/10/07 03:42:20;;;;;;;5.65;3.20;;;4.90;99.90;;;;;;5053271;28;20025;-74
2022/10/07 03:44:48;;;;;;;8.38;3.85;;;4.90;99.90;;;;;;5053269;28;20470;-74
2022/10/07 03:47:15;;;;;;;4.90;3.30;;;4.90;99.90;;;;;;5051698;28;20021;-75
2022/10/07 03:49:41;;;;;;;5.32;3.42;;;5.10;99.90;;;;;;5069733;28;20026;-75
2022/10/07 03:52:06;;;;;;;4.38;3.28;;;5.00;99.90;;;;;;5062401;28;20453;-74
2022/10/07 03:54:33;;;;;;;7.55;3.55;;;5.00;99.90;;;;;;5053061;28;20017;-75
2022/10/07 03:56:59;;;;;;;8.30;3.92;;;5.10;99.90;;;;;;5061153;28;20025;-75
2022/10/07 03:59:24;;;;;;;5.75;3.72;;;5.00;99.90;;;;;;5072966;28;20021;-75
2022/10/07 04:01:50;;;;;;;6.82;4.68;;;5.00;99.90;;;;;;5071271;28;20043;-75
2022/10/07 04:04:16;;;;;;;8.25;4.72;;;4.80;99.90;;;;;;5071615;28;20035;-75
2022/10/07 04:06:42;;;;;;;9.80;5.78;;;4.40;99.90;;;;;;5072762;28;20027;-74
2022/10/07 04:09:08;;;;;;;13.43;4.43;;;4.20;99.90;;;;;;5071246;28;20432;-75
2022/10/07 04:11:34;;;;;;;8.35;4.00;;;4.30;99.90;;;;;;5072532;28;20107;-75
2022/10/07 04:14:00;;;;;;;8.27;4.63;;;4.40;99.90;;;;;;5072627;28;20466;-75
2022/10/07 04:16:26;;;;;;;6.55;4.20;;;4.40;99.90;;;;;;5072576;28;20082;-74
2022/10/07 04:18:55;;;;;;;4.70;3.60;;;4.40;99.90;;;;;;5070755;28;20029;-75
2022/10/07 04:21:21;;;;;;;7.72;3.50;;;4.40;99.90;;;;;;5071974;28;20028;-74
2022/10/07 04:23:47;;;;;;;8.57;3.97;;;4.50;99.90;;;;;;5072411;28;20064;-74
2022/10/07 04:26:13;;;;;;;8.60;4.18;;;4.60;99.90;;;;;;5071138;28;20052;-74
2022/10/07 04:28:39;;;;;;;5.13;4.00;;;4.60;99.90;;;;;;5072444;28;20533;-74
2022/10/07 04:31:07;;;;;;;7.68;4.00;;;4.70;99.90;;;;;;5071262;28;20119;-74
2022/10/07 04:33:33;;;;;;;6.70;4.30;;;4.70;99.90;;;;;;5072375;28;20016;-74
2022/10/07 04:36:04;;;;;;;10.95;4.47;;;4.60;99.90;;;;;;5072524;28;20043;-74
2022/10/07 04:38:31;;;;;;;8.05;4.40;;;4.70;99.90;;;;;;5070777;28;20025;-74
2022/10/07 04:40:57;;;;;;;8.20;4.80;;;4.70;99.90;;;;;;5070790;28;20119;-74
2022/10/07 04:43:25;;;;;;;8.23;4.38;;;4.70;99.90;;;;;;5072012;28;20081;-74
2022/10/07 04:46:13;;;;;;;9.20;5.53;;;4.70;99.90;;;;;;5072291;28;20021;-74
2022/10/07 04:48:42;;;;;;;5.82;4.80;;;4.30;99.90;;;;;;5071909;28;20024;-74
2022/10/07 04:51:08;;;;;;;7.95;6.03;;;3.90;99.90;;;;;;5064684;28;20024;-74
2022/10/07 04:53:35;;;;;;;7.35;5.75;;;3.70;99.90;;;;;;5052057;28;20083;-74
2022/10/07 04:56:02;;;;;;;8.30;7.43;;;3.90;99.90;;;;;;5052480;28;20021;-73
2022/10/07 04:58:29;;;;;;;8.18;6.63;;;4.00;99.90;;;;;;5057397;28;20119;-74
2022/10/07 05:00:55;;;;;;;5.30;4.78;;;4.00;99.90;;;;;;5051808;28;20529;-74
2022/10/07 05:03:25;;;;;;;6.88;4.97;;;4.10;99.90;;;;;;5065120;28;20028;-74
2022/10/07 05:05:54;;;;;;;9.27;5.55;;;4.30;99.90;;;;;;5050462;28;20497;-74
2022/10/07 05:08:25;;;;;;;6.65;4.57;;;4.30;99.90;;;;;;5050166;28;20020;-74
2022/10/07 05:10:55;;;;;;;5.38;3.85;;;4.40;99.90;;;;;;5054416;28;20032;-77
2022/10/07 05:13:22;;;;;;;6.60;4.38;;;4.40;99.90;;;;;;5063820;28;20386;-74
2022/10/07 05:16:00;;;;;;;7.10;4.68;;;4.40;99.90;;;;;;5052774;28;20025;-74
2022/10/07 05:18:28;;;;;;;6.32;5.20;;;4.60;99.90;;;;;;5067400;28;20029;-74
2022/10/07 05:20:54;;;;;;;7.20;4.53;;;4.60;99.90;;;;;;5069576;28;20052;-73
2022/10/07 05:23:21;;;;;;;12.25;10.55;;;4.60;99.90;;;;;;5070759;28;20070;-74
2022/10/07 05:25:55;;;;;;;6.97;6.28;;;4.40;99.90;;;;;;5071837;28;20493;-74
2022/10/07 05:28:22;;;;;;;7.55;5.70;;;4.40;99.90;;;;;;5071610;28;20374;-74
2022/10/07 05:30:48;;;;;;;7.15;5.60;;;4.50;99.90;;;;;;5072413;28;20024;-74
2022/10/07 05:33:15;;;;;;;8.88;5.20;;;4.70;99.90;;;;;;5073455;28;20041;-74
2022/10/07 05:35:45;;;;;;;8.43;6.43;;;4.80;99.90;;;;;;5073013;28;20091;-74
2022/10/07 05:38:10;;;;;;;11.18;6.57;;;5.00;99.90;;;;;;5073192;28;20060;-74
2022/10/07 05:40:36;;;;;;;10.32;6.63;;;4.90;99.90;;;;;;5073695;28;20490;-75
2022/10/07 05:43:01;;;;;;;11.75;5.45;;;5.00;99.90;;;;;;5073334;28;20025;-74
2022/10/07 05:45:30;;;;;;;12.25;5.57;;;5.10;99.90;;;;;;5072425;28;20032;-74
2022/10/07 05:47:57;;;;;;;10.82;5.20;;;5.20;99.90;;;;;;5072743;28;20543;-74
2022/10/07 05:50:22;;;;;;;7.90;5.30;;;5.30;99.90;;;;;;5084012;28;20050;-74
2022/10/07 05:52:48;;;;;;;9.43;8.05;;;5.40;99.90;;;;;;5059027;28;20032;-74
2022/10/07 05:55:14;;;;;;;12.27;7.18;;;5.00;99.90;;;;;;5069205;28;20036;-74
2022/10/07 05:57:40;;;;;;;7.53;6.07;;;5.00;99.90;;;;;;5066558;28;20099;-74
2022/10/07 06:00:06;;;;;;;12.05;7.15;;;5.30;99.90;;;;;;5071293;28;20112;-74
2022/10/07 06:02:32;;;;;;;8.70;5.65;;;5.30;99.90;;;;;;5070065;28;20022;-75
2022/10/07 06:04:57;;;;;;;7.75;5.57;;;5.40;99.90;;;;;;5072189;28;20032;-74
2022/10/07 06:07:24;;;;;;;11.48;5.75;;;5.60;99.90;;;;;;5070944;28;20066;-74
2022/10/07 06:15:17;;;;;;;7.32;6.55;;;5.50;99.90;;;;;;5071074;28;20090;-73
2022/10/07 06:17:44;;;;;;;11.20;6.80;;;5.60;99.90;;;;;;5070796;28;20470;-74
2022/10/07 06:20:12;;;;;;;10.07;5.95;;;5.50;99.90;;;;;;5070959;28;20052;-73
2022/10/07 06:22:37;;;;;;;11.88;6.10;;;5.40;99.90;;;;;;5070902;28;20112;-73
2022/10/07 06:25:03;;;;;;;7.90;5.50;;;5.40;99.90;;;;;;5070942;28;20100;-73
2022/10/07 06:27:29;;;;;;;10.30;6.47;;;5.50;99.90;;;;;;5069420;28;20021;-73
2022/10/07 06:29:54;;;;;;;7.22;5.28;;;5.60;99.90;;;;;;5070874;28;20060;-73
2022/10/07 06:32:20;;;;;;;11.38;5.65;;;5.60;99.90;;;;;;5059224;28;20033;-74
2022/10/07 06:34:45;;;;;;;11.27;7.20;;;5.90;99.90;;;;;;5050877;28;20029;-74
2022/10/07 06:37:11;;;;;;;11.90;6.45;;;5.70;99.90;;;;;;5050663;28;20033;-74
2022/10/07 06:39:36;;;;;;;9.52;6.47;;;5.80;99.90;;;;;;5049371;28;20036;-74
2022/10/07 06:42:02;;;;;;;9.02;6.03;;;5.90;99.90;;;;;;5050680;28;20024;-73
2022/10/07 06:44:29;;;;;;;12.60;6.07;;;5.90;99.90;;;;;;5053825;28;20051;-74
2022/10/07 06:46:55;;;;;;;10.10;6.32;;;6.10;99.90;;;;;;5054050;28;20395;-75
2022/10/07 06:49:21;;;;;;;7.70;5.60;;;6.10;99.90;;;;;;5065045;28;20020;-74
2022/10/07 06:51:47;;;;;;;11.48;7.05;;;6.40;99.90;;;;;;5068444;28;20493;-73
2022/10/07 06:54:12;;;;;;;13.30;8.50;;;6.20;99.90;;;;;;5054177;28;20574;-73
2022/10/07 06:56:38;;;;;;;10.40;8.65;;;6.10;99.90;;;;;;5065570;28;20028;-74
2022/10/07 06:59:04;;;;;;;12.93;7.70;;;6.00;99.90;;;;;;5054274;28;20482;-74
2022/10/07 07:01:30;;;;;;;8.88;6.70;;;6.00;99.90;;;;;;5054001;28;20033;-74
2022/10/07 07:03:56;;;;;;;12.02;9.20;;;6.30;99.90;;;;;;5053895;28;20021;-74
2022/10/07 07:06:22;;;;;;;9.65;7.60;;;6.30;99.90;;;;;;5054062;28;20025;-74
2022/10/07 07:08:49;;;;;;;11.50;9.15;;;6.20;99.90;;;;;;5052248;28;20021;-73
2022/10/07 07:14:02;;;;;;;9.75;7.63;;;6.30;99.90;;;;;;5054056;28;20417;-74
2022/10/07 07:16:28;;;;;;;13.70;8.20;;;6.50;99.90;;;;;;5053764;28;20029;-74
2022/10/07 07:18:57;;;;;;;8.77;7.35;;;6.70;99.90;;;;;;5053426;28;20032;-74
2022/10/07 07:21:24;;;;;;;9.90;7.50;;;6.70;99.90;;;;;;5069313;28;20525;-74
2022/10/07 07:23:50;;;;;;;10.07;6.80;;;6.60;99.90;;;;;;5072017;28;20054;-74
2022/10/07 07:26:19;;;;;;;11.18;7.15;;;6.80;99.90;;;;;;5057450;28;20378;-74
2022/10/07 07:28:57;;;;;;;12.70;7.38;;;6.90;99.90;;;;;;5053452;28;20021;-74
2022/10/07 07:31:24;;;;;;;10.13;7.20;;;7.10;99.90;;;;;;5053379;28;20098;-74
2022/10/07 07:33:51;;;;;;;10.57;7.85;;;7.20;99.90;;;;;;5051982;28;20033;-74
2022/10/07 07:36:19;;;;;;;10.27;7.70;;;7.40;99.90;;;;;;5052009;28;20052;-74
2022/10/07 07:38:56;;;;;;;10.38;7.75;;;7.40;99.90;;;;;;5053032;28;20017;-75
2022/10/07 07:41:25;;;;;;;9.25;8.02;;;7.30;99.90;;;;;;5051899;28;20036;-74
2022/10/07 07:43:53;;;;;;;13.23;8.60;;;7.20;99.90;;;;;;5051840;28;20028;-74
2022/10/07 07:46:22;;;;;;;9.93;7.90;;;7.40;99.90;;;;;;5053155;28;20028;-74
2022/10/07 07:48:48;;;;;;;10.85;8.70;;;7.50;99.90;;;;;;5055742;28;20076;-74
2022/10/07 07:51:16;;;;;;;9.35;8.30;;;7.40;99.90;;;;;;5076685;28;20029;-74
2022/10/07 07:53:42;;;;;;;10.73;7.25;;;7.40;99.90;;;;;;5051122;28;20025;-74
2022/10/07 07:56:08;;;;;;;8.65;7.75;;;7.60;99.90;;;;;;5053644;28;20155;-74
2022/10/07 07:58:35;;;;;;;11.20;8.27;;;7.70;99.90;;;;;;5072602;28;20032;-74
2022/10/07 08:01:06;;;;;;;12.55;7.38;;;7.80;99.90;;;;;;5072775;28;20020;-74
2022/10/07 08:03:36;;;;;;;11.05;8.55;;;7.80;99.90;;;;;;5072535;28;20410;-73
2022/10/07 08:06:04;;;;;;;8.77;7.50;;;7.80;99.90;;;;;;5072728;28;20052;-73
2022/10/07 08:08:30;;;;;;;8.90;7.07;;;7.80;99.90;;;;;;5072292;28;20031;-74
2022/10/07 08:10:56;;;;;;;12.27;7.82;;;7.90;99.90;;;;;;5072695;28;20032;-73
2022/10/07 08:13:23;;;;;;;9.90;7.03;;;7.80;99.90;;;;;;5072594;28;20020;-73
2022/10/07 08:15:54;;;;;;;9.95;7.65;;;7.80;99.90;;;;;;5072618;28;20025;-73
2022/10/07 08:18:19;;;;;;;11.02;8.52;;;8.10;99.90;;;;;;5072362;28;20056;-73
2022/10/07 08:20:55;;;;;;;10.40;9.25;;;8.10;99.90;;;;;;5072488;28;20075;-74
2022/10/07 08:23:21;;;;;;;15.68;10.50;;;8.20;99.90;;;;;;5072276;28;20033;-74
2022/10/07 08:25:52;;;;;;;11.50;10.02;;;8.40;99.90;;;;;;5072384;28;20016;-74
2022/10/07 08:28:18;;;;;;;11.52;9.60;;;8.40;99.90;;;;;;5072151;28;20470;-73
2022/10/07 08:30:45;;;;;;;11.50;9.00;;;8.30;99.90;;;;;;5072350;28;20036;-74
2022/10/07 08:33:10;;;;;;;13.43;9.02;;;8.60;99.90;;;;;;5072415;28;20032;-74
2022/10/07 08:35:36;;;;;;;10.85;8.27;;;8.60;99.90;;;;;;5072275;28;20028;-73
2022/10/07 08:38:02;;;;;;;9.25;7.95;;;8.70;99.90;;;;;;5071960;28;20028;-73
2022/10/07 08:40:28;;;;;;;8.73;7.82;;;8.70;99.90;;;;;;5072175;28;20437;-74
2022/10/07 08:42:53;;;;;;;10.13;7.75;;;8.90;99.90;;;;;;5071964;28;20025;-74
2022/10/07 08:45:30;;;;;;;9.95;7.72;;;9.00;99.90;;;;;;5072053;28;20387;-74
2022/10/07 08:48:00;;;;;;;9.32;7.10;;;9.00;99.90;;;;;;5071901;28;20099;-74
2022/10/07 08:50:40;;;;;;;8.00;7.18;;;9.30;99.90;;;;;;5070546;28;20029;-74
2022/10/07 08:53:12;;;;;;;8.50;7.60;;;9.40;99.90;;;;;;5050688;28;20052;-75
2022/10/07 08:56:09;;;;;;;8.93;6.95;;;9.50;99.90;;;;;;5052298;28;20475;-75
2022/10/07 08:58:42;;;;;;;8.77;6.80;;;9.50;99.90;;;;;;5046628;28;20052;-74
2022/10/07 09:01:16;;;;;;;8.73;6.63;;;9.50;99.90;;;;;;5051886;28;20024;-75
2022/10/07 09:03:53;;;;;;;9.85;7.20;;;9.60;99.90;;;;;;5050437;28;20029;-74
2022/10/07 09:06:41;;;;;;;8.07;5.70;;;9.80;99.90;;;;;;5050177;28;20017;-75
2022/10/07 09:09:21;;;;;;;7.88;6.05;;;9.80;99.90;;;;;;5051665;28;20194;-74
2022/10/07 09:11:48;;;;;;;6.85;6.15;;;9.70;99.90;;;;;;5054600;28;20478;-75
2022/10/07 09:14:32;;;;;;;7.50;6.30;;;9.80;99.90;;;;;;5070411;28;20028;-75
2022/10/07 09:17:07;;;;;;;8.40;6.78;;;10.00;99.90;;;;;;5071195;28;20099;-74
2022/10/07 09:19:38;;;;;;;10.18;6.82;;;9.90;99.90;;;;;;5071499;28;20051;-74
2022/10/07 09:22:18;;;;;;;7.53;6.60;;;10.00;99.90;;;;;;5051446;28;20091;-74
2022/10/07 09:24:45;;;;;;;8.80;6.78;;;10.00;99.90;;;;;;5050120;28;20021;-74
2022/10/07 09:27:14;;;;;;;6.85;6.15;;;10.00;99.90;;;;;;5050293;28;20083;-75
2022/10/07 09:29:40;;;;;;;8.90;6.43;;;10.00;99.90;;;;;;5050067;28;20025;-74
2022/10/07 09:32:10;;;;;;;10.25;7.18;;;10.10;99.90;;;;;;5050135;28;20034;-74
2022/10/07 09:34:36;;;;;;;9.75;7.70;;;10.30;99.90;;;;;;5051336;28;20017;-74
2022/10/07 09:37:10;;;;;;;8.35;6.53;;;10.30;99.90;;;;;;5050981;28;20021;-73
2022/10/07 09:39:35;;;;;;;11.80;8.35;;;10.30;99.90;;;;;;5051335;28;20048;-74
2022/10/07 09:42:05;;;;;;;12.02;7.47;;;10.30;99.90;;;;;;5051312;28;20064;-74
2022/10/07 09:44:31;;;;;;;11.25;6.97;;;10.30;99.90;;;;;;5051149;28;20111;-74
2022/10/07 09:47:01;;;;;;;10.43;7.30;;;10.40;99.90;;;;;;5050972;28;20029;-74
2022/10/07 09:49:33;;;;;;;9.90;7.47;;;10.40;99.90;;;;;;5056560;28;20074;-74
2022/10/07 09:52:06;;;;;;;10.57;7.63;;;10.50;99.90;;;;;;5056551;28;20048;-74
2022/10/07 09:54:34;;;;;;;8.48;6.88;;;10.50;99.90;;;;;;5051307;28;20441;-74
2022/10/07 09:57:02;;;;;;;8.77;7.45;;;10.60;99.90;;;;;;5059538;28;20059;-74
2022/10/07 09:59:33;;;;;;;8.50;6.80;;;10.90;99.90;;;;;;5070024;28;20036;-75
2022/10/07 10:02:14;;;;;;;8.48;7.22;;;11.00;99.90;;;;;;5071037;28;20028;-74
2022/10/07 10:04:49;;;;;;;10.13;7.28;;;11.10;99.90;;;;;;5071134;28;20027;-74
2022/10/07 10:07:25;;;;;;;9.17;7.13;;;11.10;99.90;;;;;;5070900;28;20032;-74
2022/10/07 10:09:53;;;;;;;10.43;6.50;;;11.10;99.90;;;;;;5069863;28;20595;-74
2022/10/07 10:12:20;;;;;;;10.55;5.97;;;11.40;99.90;;;;;;5071137;28;20094;-75
2022/10/07 10:14:50;;;;;;;9.65;6.28;;;11.30;99.90;;;;;;5070999;28;20040;-74
2022/10/07 10:17:33;;;;;;;7.00;6.05;;;11.30;99.90;;;;;;5070947;28;20024;-74
2022/10/07 10:20:26;;;;;;;8.88;6.35;;;11.40;99.90;;;;;;5068860;28;20033;-74
2022/10/07 10:22:52;;;;;;;12.13;6.10;;;11.40;99.90;;;;;;5053291;28;20486;-74
2022/10/07 10:26:24;;;;;;;8.80;6.18;;;11.60;99.90;;;;;;5053324;28;20025;-75
2022/10/07 10:28:28;;;;;;;8.80;5.07;;;11.80;99.90;;;;;;5043448;28;20486;-74
2022/10/07 10:31:03;;;;;;;7.90;5.88;;;12.10;99.90;;;;;;5054411;28;20032;-74
2022/10/07 10:33:44;;;;;;;10.25;5.60;;;12.00;99.90;;;;;;5053244;28;20082;-76
2022/10/07 10:36:21;;;;;;;6.85;5.40;;;12.00;99.90;;;;;;5053308;28;20029;-72
2022/10/07 10:39:00;;;;;;;7.85;5.50;;;12.20;99.90;;;;;;5054418;28;20021;-74
2022/10/07 10:41:50;;;;;;;10.40;5.68;;;12.50;99.90;;;;;;5054408;28;20107;-75
2022/10/07 10:44:31;;;;;;;11.45;6.50;;;12.40;99.90;;;;;;5054721;28;20029;-74
2022/10/07 10:47:42;;;;;;;10.48;5.78;;;12.60;99.90;;;;;;5054515;28;20055;-72
2022/10/07 10:50:56;;;;;;;7.60;5.75;;;12.60;99.90;;;;;;5065755;28;20438;-74
2022/10/07 10:53:41;;;;;;;8.57;5.80;;;12.60;99.90;;;;;;5012299;28;20391;-74
2022/10/07 10:56:37;;;;;;;8.23;6.13;;;12.50;99.90;;;;;;5074339;28;20363;-74
2022/10/07 10:59:14;;;;;;;8.70;5.20;;;12.60;99.90;;;;;;5073975;28;20028;-74
2022/10/07 11:01:42;;;;;;;10.02;5.97;;;12.70;99.90;;;;;;5073965;28;20428;-74
2022/10/07 11:04:12;;;;;;;10.73;5.35;;;12.90;99.90;;;;;;5074132;28;20025;-74
2022/10/07 11:06:40;;;;;;;8.20;5.10;;;13.10;99.90;;;;;;5073959;28;20027;-75
2022/10/07 11:09:14;;;;;;;5.68;5.00;;;13.40;99.90;;;;;;5073750;28;20470;-74
2022/10/07 11:11:42;;;;;;;9.30;4.72;;;13.40;99.90;;;;;;5072494;28;20074;-74
2022/10/07 11:14:21;;;;;;;10.75;5.85;;;13.70;99.90;;;;;;5073988;28;20025;-74
2022/10/07 11:16:54;;;;;;;8.25;5.30;;;13.70;99.90;;;;;;5073725;28;20085;-75
2022/10/07 11:19:39;;;;;;;7.78;5.60;;;13.90;99.90;;;;;;5073724;28;20077;-74
2022/10/07 11:22:12;;;;;;;9.43;5.40;;;14.00;99.90;;;;;;5074106;28;20060;-72
2022/10/07 11:24:49;;;;;;;7.93;5.47;;;14.20;99.90;;;;;;5072230;28;20115;-75
2022/10/07 11:27:32;;;;;;;7.65;5.53;;;14.10;99.90;;;;;;5073487;28;20471;-75
2022/10/07 11:30:15;;;;;;;15.13;6.38;;;14.00;99.90;;;;;;5073215;28;20032;-74
2022/10/07 11:32:57;;;;;;;7.43;5.60;;;14.20;99.90;;;;;;5073395;28;20024;-72
2022/10/07 11:35:50;;;;;;;8.05;4.57;;;14.30;99.90;;;;;;5073519;28;20020;-74
2022/10/07 11:38:32;;;;;;;8.18;4.75;;;14.60;99.90;;;;;;5073436;28;20051;-72
2022/10/07 11:41:06;;;;;;;13.20;9.60;;;14.80;99.90;;;;;;5073589;28;20386;-72
2022/10/07 11:43:47;;;;;;;8.35;6.45;;;15.00;99.90;;;;;;5071954;28;20393;-72
2022/10/07 11:46:32;;;;;;;5.15;3.28;;;14.90;99.90;;;;;;5073273;28;20012;-74
2022/10/07 11:49:11;;;;;;;5.97;3.33;;;14.70;99.90;;;;;;5074515;28;20036;-74
2022/10/07 11:51:53;;;;;;;6.13;3.00;;;14.80;99.90;;;;;;5069338;28;20035;-74
2022/10/07 11:54:22;;;;;;;4.40;2.75;;;15.00;99.90;;;;;;5053218;28;20028;-74
2022/10/07 11:56:52;;;;;;;6.13;3.00;;;15.40;99.90;;;;;;5060806;28;20021;-72
2022/10/07 11:59:44;;;;;;;6.15;2.97;;;15.70;99.90;;;;;;5073147;28;20033;-72
2022/10/07 12:02:38;;;;;;;5.57;3.17;;;15.70;99.90;;;;;;5072789;28;20032;-73
2022/10/07 12:05:06;;;;;;;7.05;3.03;;;16.50;99.90;;;;;;5071034;28;20498;-73
2022/10/07 12:07:36;;;;;;;4.85;3.10;;;16.70;99.90;;;;;;5072699;28;20079;-73
2022/10/07 12:10:04;;;;;;;4.70;2.90;;;16.30;99.90;;;;;;5072826;28;20016;-73
2022/10/07 12:12:42;;;;;;;4.03;2.65;;;16.10;99.90;;;;;;5072680;28;20025;-73
2022/10/07 12:15:28;;;;;;;5.18;3.45;;;16.00;99.90;;;;;;5072665;28;20059;-73
2022/10/07 12:18:04;;;;;;;6.25;3.35;;;15.90;99.90;;;;;;5072428;28;20028;-73
2022/10/07 12:20:43;;;;;;;7.22;3.42;;;16.30;99.90;;;;;;5072536;28;20028;-72
2022/10/07 12:23:21;;;;;;;4.50;3.00;;;16.50;99.90;;;;;;5071275;28;20402;-75
2022/10/07 12:26:41;;;;;;;4.22;3.05;;;16.30;99.90;;;;;;5072469;28;20021;-74
2022/10/07 12:29:22;;;;;;;5.70;2.60;;;17.00;99.90;;;;;;5010309;28;20030;-73
2022/10/07 12:31:48;;;;;;;4.85;2.90;;;17.60;99.90;;;;;;5050049;28;20033;-74
2022/10/07 12:34:33;;;;;;;6.30;3.00;;;18.00;99.90;;;;;;5052191;28;20364;-73
2022/10/07 12:37:36;;;;;;;2.97;2.10;;;18.20;99.90;;;;;;5052360;28;20052;-73
2022/10/07 12:40:16;;;;;;;3.03;2.17;;;19.00;99.90;;;;;;5051743;28;20025;-74
2022/10/07 12:42:49;;;;;;;4.03;2.20;;;19.80;99.90;;;;;;5050733;28;20021;-74
2022/10/07 12:45:16;;;;;;;3.45;2.17;;;19.40;99.90;;;;;;5052023;28;20021;-73
2022/10/07 12:47:42;;;;;;;5.35;2.35;;;19.90;99.90;;;;;;5051813;28;20052;-73
2022/10/07 12:50:13;;;;;;;3.13;1.85;;;19.60;99.90;;;;;;5077274;28;20016;-73
2022/10/07 12:52:50;;;;;;;4.05;2.20;;;19.40;99.90;;;;;;5052115;28;20112;-73
2022/10/07 12:55:20;;;;;;;6.72;2.30;;;20.30;99.90;;;;;;5051931;28;20020;-73
2022/10/07 12:59:45;;;;;;;6.15;2.05;;;20.50;99.90;;;;;;5066672;28;20033;-74
2022/10/07 13:01:01;;;;;;;2.83;1.80;;;20.90;99.90;;;;;;5071606;28;20047;-73
2022/10/07 13:04:02;;;;;;;4.35;2.15;;;22.00;99.90;;;;;;5071648;28;20024;-73
2022/10/07 13:06:56;;;;;;;4.57;2.17;;;21.30;99.90;;;;;;5071885;28;20016;-73
2022/10/07 13:09:46;;;;;;;6.28;1.90;;;21.50;99.90;;;;;;5071859;28;20024;-74
2022/10/07 13:12:45;;;;;;;3.88;2.05;;;21.30;99.90;;;;;;5070346;28;20031;-73
2022/10/07 13:15:34;;;;;;;2.17;1.90;;;20.50;99.90;;;;;;5068008;28;20114;-73
2022/10/07 13:18:17;;;;;;;7.53;2.00;;;19.70;99.90;;;;;;5070056;28;20036;-73
2022/10/07 13:21:26;;;;;;;5.90;2.42;;;19.00;99.90;;;;;;5071591;28;20031;-72
2022/10/07 13:23:54;;;;;;;4.90;2.10;;;19.70;99.90;;;;;;5046480;28;20037;-73
2022/10/07 13:26:21;;;;;;;6.30;2.25;;;19.90;99.90;;;;;;5061398;28;20029;-72
2022/10/07 13:28:54;;;;;;;4.97;2.20;;;19.70;99.90;;;;;;5050150;28;20037;-73